Time;durP1;ratioP1;P1;durP2;ratioP2;P2;SDS_P1;SDS_P2;PMS_P1;PMS_P2;Temp;Humidity;BMP_temperature;BMP_pressure;BME280_temperature;BME280_humidity;BME280_pressure;Samples;Min_cycle;Max_cycle;Signal;HPM_P1;HPM_P2
2021/07/15 00:01:59;;;;;;;16.70;9.55;;;17.00;72.60;;;;;;5038448;28;20500;-75
2021/07/15 00:04:25;;;;;;;16.70;9.70;;;16.90;72.60;;;;;;5038887;28;20061;-75
2021/07/15 00:06:51;;;;;;;16.73;9.73;;;17.00;72.30;;;;;;5038473;28;20538;-75
2021/07/15 00:09:18;;;;;;;15.93;9.35;;;16.90;72.60;;;;;;5038813;28;20025;-75
2021/07/15 00:11:46;;;;;;;16.15;9.43;;;16.90;72.80;;;;;;5038441;28;20507;-75
2021/07/15 00:14:13;;;;;;;16.08;9.60;;;16.90;72.60;;;;;;5030087;28;20062;-75
2021/07/15 00:16:39;;;;;;;16.90;9.50;;;16.80;73.30;;;;;;5035529;28;20030;-75
2021/07/15 00:19:07;;;;;;;16.38;10.70;;;16.80;73.60;;;;;;5038426;28;20037;-75
2021/07/15 00:21:33;;;;;;;18.83;10.23;;;16.80;73.50;;;;;;5038216;28;20050;-75
2021/07/15 00:23:59;;;;;;;17.98;9.68;;;16.70;73.30;;;;;;5038604;28;20075;-75
2021/07/15 00:26:25;;;;;;;18.10;10.32;;;16.70;73.70;;;;;;5038165;28;20087;-75
2021/07/15 00:28:52;;;;;;;16.38;10.43;;;16.70;73.70;;;;;;5038252;28;20021;-74
2021/07/15 00:31:18;;;;;;;15.38;9.55;;;16.70;73.20;;;;;;5037918;28;20022;-75
2021/07/15 00:33:47;;;;;;;17.17;9.63;;;16.60;73.60;;;;;;5038198;28;20071;-74
2021/07/15 00:36:14;;;;;;;18.80;9.95;;;16.60;73.40;;;;;;5038074;28;20555;-75
2021/07/15 00:38:39;;;;;;;18.00;11.68;;;16.60;73.70;;;;;;5038098;28;20032;-74
2021/07/15 00:41:07;;;;;;;14.13;8.82;;;16.60;73.80;;;;;;5037895;28;20112;-74
2021/07/15 00:43:33;;;;;;;16.40;9.65;;;16.60;73.10;;;;;;5038022;28;20041;-74
2021/07/15 00:45:59;;;;;;;17.80;11.02;;;16.60;73.50;;;;;;5037656;28;20512;-73
2021/07/15 00:48:25;;;;;;;16.73;10.07;;;16.60;73.50;;;;;;5038022;28;20022;-73
2021/07/15 00:50:51;;;;;;;16.58;9.32;;;16.50;73.40;;;;;;5036557;28;20028;-73
2021/07/15 00:53:18;;;;;;;17.00;10.35;;;16.60;73.10;;;;;;5037828;28;20085;-73
2021/07/15 00:55:45;;;;;;;15.80;9.75;;;16.60;74.00;;;;;;5037669;28;20022;-73
2021/07/15 00:58:13;;;;;;;17.30;10.07;;;16.50;73.90;;;;;;5037849;28;20029;-73
2021/07/15 01:00:42;;;;;;;16.50;10.00;;;16.50;73.70;;;;;;5036757;28;20104;-73
2021/07/15 01:03:09;;;;;;;16.90;9.38;;;16.50;73.40;;;;;;5037528;28;20033;-73
2021/07/15 01:05:41;;;;;;;17.45;10.57;;;16.50;73.70;;;;;;5037635;28;20032;-73
2021/07/15 01:08:09;;;;;;;17.85;11.30;;;16.40;74.00;;;;;;5037692;28;20052;-73
2021/07/15 01:10:37;;;;;;;19.27;11.45;;;16.40;74.50;;;;;;5024441;28;20022;-73
2021/07/15 01:13:24;;;;;;;18.08;10.05;;;16.40;75.30;;;;;;5037493;28;20021;-74
2021/07/15 01:16:24;;;;;;;20.27;11.55;;;16.30;75.20;;;;;;5027544;28;20025;-73
2021/07/15 01:18:52;;;;;;;20.38;11.05;;;16.20;75.20;;;;;;5025745;28;20025;-73
2021/07/15 01:21:24;;;;;;;20.83;11.50;;;16.20;76.10;;;;;;5037463;28;20049;-74
2021/07/15 01:24:27;;;;;;;19.60;9.88;;;16.20;76.20;;;;;;5037566;28;20071;-74
2021/07/15 01:26:53;;;;;;;19.92;10.95;;;16.20;75.90;;;;;;5024001;28;20029;-74
2021/07/15 01:29:52;;;;;;;17.58;11.52;;;16.10;77.00;;;;;;5037370;28;20472;-73
2021/07/15 01:32:24;;;;;;;17.30;10.90;;;16.10;76.70;;;;;;5037085;28;20029;-74
2021/07/15 01:34:53;;;;;;;22.47;10.93;;;16.00;77.30;;;;;;5024474;28;20025;-74
2021/07/15 01:37:19;;;;;;;23.77;11.20;;;16.00;76.50;;;;;;5037394;28;20105;-73
2021/07/15 01:39:48;;;;;;;19.17;11.23;;;16.00;76.90;;;;;;5037563;28;20373;-74
2021/07/15 01:42:17;;;;;;;21.95;12.48;;;16.00;77.50;;;;;;5037216;28;20424;-74
2021/07/15 01:44:44;;;;;;;20.13;10.65;;;16.00;77.80;;;;;;5037356;28;20490;-73
2021/07/15 01:47:11;;;;;;;19.67;10.73;;;15.90;77.20;;;;;;5036995;28;20040;-73
2021/07/15 01:49:38;;;;;;;19.40;11.15;;;15.90;77.30;;;;;;5037327;28;20029;-73
2021/07/15 01:52:05;;;;;;;21.25;12.10;;;15.90;77.60;;;;;;5037196;28;20160;-73
2021/07/15 01:54:31;;;;;;;19.27;10.98;;;15.90;78.30;;;;;;5037176;28;20021;-73
2021/07/15 01:56:59;;;;;;;19.02;11.02;;;15.90;77.60;;;;;;5037010;28;20072;-73
2021/07/15 01:59:29;;;;;;;24.48;11.88;;;15.90;78.00;;;;;;5037151;28;20056;-73
2021/07/15 02:01:57;;;;;;;18.98;11.02;;;16.00;77.80;;;;;;5036821;28;20018;-72
2021/07/15 02:04:25;;;;;;;18.20;11.45;;;16.00;77.60;;;;;;5037171;28;20040;-72
2021/07/15 02:06:54;;;;;;;27.83;12.15;;;16.00;77.20;;;;;;5036828;28;20049;-72
2021/07/15 02:09:22;;;;;;;19.77;11.52;;;16.10;77.90;;;;;;5037039;28;20420;-72
2021/07/15 02:11:50;;;;;;;21.05;11.82;;;16.10;78.10;;;;;;5034091;28;20029;-72
2021/07/15 02:14:19;;;;;;;21.30;11.65;;;16.10;78.00;;;;;;5022530;28;20112;-73
2021/07/15 02:16:50;;;;;;;20.70;12.65;;;16.10;78.10;;;;;;5038429;28;20021;-73
2021/07/15 02:19:19;;;;;;;22.02;11.98;;;16.10;77.90;;;;;;5040770;28;20093;-73
2021/07/15 02:21:46;;;;;;;21.67;12.50;;;16.10;78.10;;;;;;5040567;28;20504;-73
2021/07/15 02:24:15;;;;;;;23.23;11.98;;;16.10;77.70;;;;;;5040678;28;20512;-73
2021/07/15 02:26:43;;;;;;;23.88;13.65;;;16.10;78.00;;;;;;5040339;28;20083;-73
2021/07/15 02:29:09;;;;;;;20.17;12.07;;;16.20;78.90;;;;;;5039181;28;20083;-73
2021/07/15 02:31:43;;;;;;;22.52;13.52;;;16.20;78.50;;;;;;5055788;28;20574;-73
2021/07/15 02:34:15;;;;;;;27.48;12.63;;;16.20;78.40;;;;;;5040427;28;20037;-73
2021/07/15 02:36:42;;;;;;;21.42;11.90;;;16.20;78.30;;;;;;5040550;28;20022;-73
2021/07/15 02:39:09;;;;;;;22.40;13.75;;;16.20;78.30;;;;;;5040314;28;20033;-73
2021/07/15 02:41:36;;;;;;;23.15;14.15;;;16.20;78.70;;;;;;5040309;28;20014;-73
2021/07/15 02:44:02;;;;;;;22.70;13.38;;;16.20;78.60;;;;;;5040299;28;20026;-73
2021/07/15 02:46:29;;;;;;;28.05;13.70;;;16.20;78.60;;;;;;5040264;28;20037;-74
2021/07/15 02:48:55;;;;;;;22.45;14.48;;;16.20;78.50;;;;;;5040115;28;20029;-74
2021/07/15 02:51:21;;;;;;;29.60;14.13;;;16.20;78.30;;;;;;5040220;28;20052;-74
2021/07/15 02:53:47;;;;;;;27.33;13.93;;;16.30;78.90;;;;;;5040152;28;20033;-74
2021/07/15 02:56:18;;;;;;;24.05;12.52;;;16.30;78.70;;;;;;5039984;28;20028;-74
2021/07/15 02:59:00;;;;;;;25.30;14.38;;;16.30;78.00;;;;;;5039840;28;20399;-74
2021/07/15 03:01:32;;;;;;;28.63;14.75;;;16.30;79.00;;;;;;5039592;28;20503;-74
2021/07/15 03:04:04;;;;;;;30.17;16.23;;;16.30;79.20;;;;;;5040190;28;20104;-74
2021/07/15 03:06:39;;;;;;;27.02;15.88;;;16.40;80.00;;;;;;5039894;28;20077;-74
2021/07/15 03:09:12;;;;;;;31.27;15.40;;;16.30;79.70;;;;;;5028245;28;20077;-74
2021/07/15 03:11:49;;;;;;;25.92;14.40;;;16.40;79.40;;;;;;5039769;28;20029;-73
2021/07/15 03:14:16;;;;;;;27.33;15.40;;;16.40;79.70;;;;;;5030826;28;20026;-74
2021/07/15 03:16:43;;;;;;;29.23;15.45;;;16.40;79.20;;;;;;5036866;28;20024;-74
2021/07/15 03:19:11;;;;;;;29.15;15.88;;;16.40;79.20;;;;;;5039634;28;20028;-73
2021/07/15 03:21:41;;;;;;;30.17;16.05;;;16.40;79.10;;;;;;5039433;28;20134;-73
2021/07/15 03:24:10;;;;;;;26.02;14.27;;;16.40;79.70;;;;;;5038481;28;20085;-73
2021/07/15 03:26:37;;;;;;;29.77;16.48;;;16.50;79.30;;;;;;5039502;28;20033;-74
2021/07/15 03:29:05;;;;;;;32.38;16.30;;;16.50;79.90;;;;;;5039468;28;20021;-74
2021/07/15 03:31:33;;;;;;;29.88;17.52;;;16.50;80.00;;;;;;5026409;28;20034;-73
2021/07/15 03:33:59;;;;;;;28.05;14.68;;;16.50;80.10;;;;;;5039208;28;20480;-74
2021/07/15 03:36:25;;;;;;;30.55;17.02;;;16.50;80.10;;;;;;5039675;28;20556;-74
2021/07/15 03:38:52;;;;;;;31.85;15.65;;;16.50;81.10;;;;;;5039108;28;20021;-74
2021/07/15 03:41:18;;;;;;;29.63;16.38;;;16.50;80.60;;;;;;5037901;28;20021;-74
2021/07/15 03:43:45;;;;;;;26.02;15.52;;;16.50;80.60;;;;;;5039132;28;20025;-74
2021/07/15 03:46:12;;;;;;;31.88;16.17;;;16.50;80.20;;;;;;5039133;28;20036;-74
2021/07/15 03:48:38;;;;;;;29.15;16.40;;;16.50;80.70;;;;;;5036179;28;20033;-73
2021/07/15 03:51:07;;;;;;;29.63;17.23;;;16.50;80.40;;;;;;5039350;28;20035;-73
2021/07/15 03:53:35;;;;;;;27.52;16.35;;;16.50;81.00;;;;;;5038862;28;20104;-73
2021/07/15 03:56:01;;;;;;;31.40;18.15;;;16.50;80.50;;;;;;5039061;28;20053;-73
2021/07/15 03:58:30;;;;;;;28.40;15.95;;;16.50;80.80;;;;;;5038899;28;20079;-74
2021/07/15 04:01:00;;;;;;;30.42;15.93;;;16.50;80.50;;;;;;5038643;28;20028;-73
2021/07/15 04:03:29;;;;;;;29.70;16.00;;;16.50;80.60;;;;;;5038723;28;20021;-74
2021/07/15 04:05:56;;;;;;;29.90;16.48;;;16.50;80.40;;;;;;5038866;28;20029;-74
2021/07/15 04:08:23;;;;;;;24.05;14.60;;;16.50;80.60;;;;;;5038645;28;20017;-74
2021/07/15 04:10:52;;;;;;;27.60;15.30;;;16.50;79.80;;;;;;5038675;28;20029;-73
2021/07/15 04:13:19;;;;;;;29.90;15.43;;;16.40;79.50;;;;;;5035354;28;20508;-73
2021/07/15 04:15:48;;;;;;;27.63;14.98;;;16.40;80.10;;;;;;5028099;28;20029;-74
2021/07/15 04:18:15;;;;;;;23.17;13.90;;;16.40;80.30;;;;;;5038408;28;20022;-74
2021/07/15 04:20:42;;;;;;;30.00;15.15;;;16.30;79.10;;;;;;5038434;28;20056;-73
2021/07/15 04:23:08;;;;;;;27.75;15.00;;;16.30;79.00;;;;;;5038271;28;20492;-73
2021/07/15 04:25:35;;;;;;;25.17;13.85;;;16.30;78.40;;;;;;5038669;28;20022;-73
2021/07/15 04:28:03;;;;;;;26.05;15.23;;;16.30;78.40;;;;;;5038226;28;20063;-73
2021/07/15 04:30:29;;;;;;;24.15;14.10;;;16.30;78.20;;;;;;5038118;28;20037;-74
2021/07/15 04:33:12;;;;;;;27.02;15.40;;;16.30;78.70;;;;;;5038023;28;20369;-73
2021/07/15 04:35:39;;;;;;;26.08;12.98;;;16.30;79.30;;;;;;5038132;28;20025;-73
2021/07/15 04:38:06;;;;;;;26.73;14.75;;;16.30;78.70;;;;;;5038249;28;20100;-73
2021/07/15 04:40:34;;;;;;;27.17;14.65;;;16.30;80.10;;;;;;5037956;28;20127;-74
2021/07/15 04:43:05;;;;;;;31.73;15.57;;;16.30;79.80;;;;;;5033635;28;20022;-74
2021/07/15 04:45:33;;;;;;;22.93;13.73;;;16.30;79.80;;;;;;5048528;28;20045;-75
2021/07/15 04:48:00;;;;;;;25.63;14.50;;;16.30;79.10;;;;;;5038082;28;20112;-74
2021/07/15 04:50:28;;;;;;;25.48;13.82;;;16.30;78.30;;;;;;5037905;28;20029;-74
2021/07/15 04:53:10;;;;;;;25.02;13.60;;;16.30;79.00;;;;;;5037924;28;20037;-74
2021/07/15 04:55:38;;;;;;;23.97;14.20;;;16.30;79.10;;;;;;5037634;28;20022;-74
2021/07/15 04:58:05;;;;;;;24.92;14.40;;;16.30;78.70;;;;;;5033267;28;20269;-74
2021/07/15 05:00:32;;;;;;;20.48;13.00;;;16.40;79.10;;;;;;5036692;28;20108;-73
2021/07/15 05:03:00;;;;;;;21.38;13.85;;;16.30;79.30;;;;;;5037751;28;20056;-74
2021/07/15 05:05:26;;;;;;;23.02;13.05;;;16.40;79.20;;;;;;5037439;28;20606;-74
2021/07/15 05:07:52;;;;;;;28.30;14.80;;;16.40;79.30;;;;;;5037951;28;20049;-73
2021/07/15 05:10:18;;;;;;;26.88;14.80;;;16.50;80.40;;;;;;5037492;28;20048;-73
2021/07/15 05:12:44;;;;;;;26.63;14.30;;;16.50;80.30;;;;;;5037605;28;20495;-73
2021/07/15 05:15:11;;;;;;;26.67;15.55;;;16.50;80.40;;;;;;5025636;28;20052;-73
2021/07/15 05:17:37;;;;;;;24.13;14.32;;;16.50;80.70;;;;;;5037643;28;20021;-74
2021/07/15 05:20:07;;;;;;;22.45;13.13;;;16.50;80.30;;;;;;5037408;28;20088;-74
2021/07/15 05:22:34;;;;;;;24.98;14.55;;;16.50;79.80;;;;;;5039693;28;20014;-74
2021/07/15 05:25:00;;;;;;;25.67;14.43;;;16.50;80.00;;;;;;5037163;28;20025;-73
2021/07/15 05:27:25;;;;;;;23.15;13.50;;;16.50;80.20;;;;;;5037532;28;20045;-74
2021/07/15 05:29:51;;;;;;;23.50;13.02;;;16.60;80.00;;;;;;5037372;28;20076;-72
2021/07/15 05:32:17;;;;;;;23.75;13.90;;;16.60;80.00;;;;;;5037134;28;20026;-71
2021/07/15 05:34:43;;;;;;;21.08;12.43;;;16.60;79.80;;;;;;5024371;28;20026;-78
2021/07/15 05:37:09;;;;;;;23.35;13.57;;;16.60;79.50;;;;;;5037392;28;20037;-79
2021/07/15 05:39:36;;;;;;;21.80;13.52;;;16.70;80.10;;;;;;5037508;28;20388;-75
2021/07/15 05:42:02;;;;;;;19.77;12.30;;;16.70;79.70;;;;;;5037213;28;20021;-79
2021/07/15 05:44:28;;;;;;;20.05;13.25;;;16.70;79.90;;;;;;5037442;28;20030;-77
2021/07/15 05:46:54;;;;;;;27.23;13.98;;;16.70;79.80;;;;;;5038967;28;20152;-74
2021/07/15 05:49:19;;;;;;;23.80;13.23;;;16.80;80.00;;;;;;5041451;28;20034;-72
2021/07/15 05:51:46;;;;;;;19.67;12.18;;;16.80;80.00;;;;;;5041421;28;20033;-75
2021/07/15 05:54:15;;;;;;;21.88;10.70;;;16.80;80.20;;;;;;5041319;28;20025;-72
2021/07/15 05:56:41;;;;;;;18.88;12.07;;;16.80;79.60;;;;;;5041080;28;20041;-76
2021/07/15 05:59:07;;;;;;;19.80;11.13;;;16.90;79.50;;;;;;5041129;28;20067;-75
2021/07/15 06:01:33;;;;;;;19.38;12.63;;;16.90;79.50;;;;;;5039500;28;20029;-75
2021/07/15 06:03:59;;;;;;;17.08;10.73;;;16.90;79.10;;;;;;5040091;28;20415;-75
2021/07/15 06:06:25;;;;;;;19.38;11.52;;;17.00;79.10;;;;;;5039949;28;20033;-76
2021/07/15 06:08:53;;;;;;;18.48;10.88;;;17.00;79.00;;;;;;5038917;28;20476;-75
2021/07/15 06:11:19;;;;;;;18.63;11.45;;;17.00;79.00;;;;;;5040577;28;20022;-76
2021/07/15 06:13:45;;;;;;;22.23;12.18;;;17.00;79.20;;;;;;5034626;28;20029;-75
2021/07/15 06:16:11;;;;;;;18.42;11.27;;;17.00;79.50;;;;;;5033720;28;20024;-74
2021/07/15 06:18:36;;;;;;;18.73;11.73;;;17.10;79.10;;;;;;5027436;28;20160;-74
2021/07/15 06:21:04;;;;;;;16.90;11.52;;;17.10;79.20;;;;;;5040406;28;20068;-74
2021/07/15 06:23:32;;;;;;;17.92;11.35;;;17.10;79.10;;;;;;5040895;28;20033;-76
2021/07/15 06:25:59;;;;;;;19.08;11.68;;;17.10;79.00;;;;;;5040327;28;20087;-76
2021/07/15 06:28:26;;;;;;;16.80;10.57;;;17.20;78.90;;;;;;5040631;28;20025;-75
2021/07/15 06:30:51;;;;;;;15.95;11.05;;;17.20;78.70;;;;;;5040179;28;20029;-76
2021/07/15 06:33:17;;;;;;;16.70;9.98;;;17.20;78.90;;;;;;5040325;28;20064;-75
2021/07/15 06:35:47;;;;;;;16.15;10.32;;;17.20;79.00;;;;;;5040560;28;20476;-74
2021/07/15 06:38:13;;;;;;;15.70;9.88;;;17.20;78.80;;;;;;5040823;28;20122;-74
2021/07/15 06:40:39;;;;;;;19.90;9.98;;;17.30;79.00;;;;;;5040049;28;20097;-76
2021/07/15 06:43:05;;;;;;;16.90;11.80;;;17.30;79.10;;;;;;5040449;28;20439;-74
2021/07/15 06:45:31;;;;;;;17.42;10.30;;;17.30;79.20;;;;;;5039922;28;20032;-75
2021/07/15 06:47:57;;;;;;;13.80;9.68;;;17.30;79.40;;;;;;5040551;28;20033;-77
2021/07/15 06:50:23;;;;;;;16.42;9.77;;;17.30;79.10;;;;;;5040206;28;20029;-75
2021/07/15 06:52:49;;;;;;;18.63;9.18;;;17.30;78.80;;;;;;5040194;28;20116;-75
2021/07/15 06:55:15;;;;;;;15.88;9.95;;;17.40;78.90;;;;;;5039806;28;20049;-75
2021/07/15 06:57:40;;;;;;;16.30;9.48;;;17.40;79.00;;;;;;5038977;28;20091;-76
2021/07/15 07:00:10;;;;;;;16.33;9.07;;;17.40;78.90;;;;;;5039556;28;20025;-76
2021/07/15 07:02:41;;;;;;;16.38;10.27;;;17.40;79.50;;;;;;5039945;28;20052;-75
2021/07/15 07:05:07;;;;;;;15.80;9.90;;;17.50;78.90;;;;;;5039709;28;20036;-75
2021/07/15 07:07:34;;;;;;;14.88;8.88;;;17.50;79.00;;;;;;5046626;28;20408;-75
2021/07/15 07:10:00;;;;;;;13.90;9.40;;;17.60;78.80;;;;;;5035307;28;20021;-75
2021/07/15 07:12:25;;;;;;;13.10;9.02;;;17.60;78.70;;;;;;5039760;28;20044;-75
2021/07/15 07:14:51;;;;;;;16.38;10.18;;;17.60;78.70;;;;;;5027712;28;20018;-75
2021/07/15 07:17:17;;;;;;;14.77;9.57;;;17.70;79.20;;;;;;5038491;28;20034;-75
2021/07/15 07:19:43;;;;;;;14.30;8.95;;;17.70;79.10;;;;;;5039439;28;20018;-76
2021/07/15 07:22:09;;;;;;;16.02;9.02;;;17.70;79.10;;;;;;5039498;28;20049;-72
2021/07/15 07:24:35;;;;;;;22.15;13.82;;;17.70;79.10;;;;;;5039487;28;20124;-76
2021/07/15 07:27:00;;;;;;;13.63;9.38;;;17.70;79.10;;;;;;5038145;28;20036;-76
2021/07/15 07:29:26;;;;;;;14.82;8.80;;;17.80;79.10;;;;;;5039346;28;20029;-75
2021/07/15 07:31:52;;;;;;;12.98;9.30;;;17.80;79.10;;;;;;5038944;28;20033;-76
2021/07/15 07:34:18;;;;;;;14.93;9.05;;;17.80;79.00;;;;;;5038915;28;20461;-75
2021/07/15 07:36:44;;;;;;;14.60;9.75;;;17.90;79.00;;;;;;5034876;28;20513;-76
2021/07/15 07:39:10;;;;;;;14.40;9.25;;;18.00;79.00;;;;;;5035426;28;20030;-75
2021/07/15 07:41:37;;;;;;;11.80;8.50;;;18.00;78.90;;;;;;5038203;28;20113;-77
2021/07/15 07:44:03;;;;;;;12.50;8.77;;;18.10;79.00;;;;;;5035048;28;20109;-76
2021/07/15 07:46:29;;;;;;;14.52;9.43;;;18.20;78.90;;;;;;5038219;28;20025;-75
2021/07/15 07:48:55;;;;;;;14.10;8.43;;;18.20;78.80;;;;;;5035593;28;20028;-75
2021/07/15 07:51:20;;;;;;;13.30;8.65;;;18.30;78.60;;;;;;5038833;28;20061;-76
2021/07/15 07:53:46;;;;;;;13.68;8.63;;;18.30;78.50;;;;;;5037463;28;20075;-75
2021/07/15 07:56:14;;;;;;;13.60;8.73;;;18.30;78.20;;;;;;5034732;28;20032;-77
2021/07/15 07:58:40;;;;;;;12.40;8.15;;;18.40;78.40;;;;;;5035380;28;20029;-75
2021/07/15 08:01:06;;;;;;;10.68;8.43;;;18.50;78.30;;;;;;5037201;28;20026;-76
2021/07/15 08:03:32;;;;;;;10.63;7.72;;;18.50;78.20;;;;;;5037520;28;20619;-77
2021/07/15 08:05:58;;;;;;;10.93;7.72;;;18.60;78.40;;;;;;5035992;28;20022;-76
2021/07/15 08:08:23;;;;;;;12.77;7.88;;;18.70;78.40;;;;;;5037293;28;20503;-76
2021/07/15 08:10:51;;;;;;;11.18;7.43;;;18.90;78.40;;;;;;5034003;28;20461;-76
2021/07/15 08:13:17;;;;;;;10.55;7.47;;;19.20;78.50;;;;;;5036156;28;20440;-77
2021/07/15 08:15:42;;;;;;;10.48;6.60;;;19.40;78.10;;;;;;5036140;28;20025;-76
2021/07/15 08:18:08;;;;;;;14.20;7.00;;;19.60;77.40;;;;;;5038429;28;20025;-76
2021/07/15 08:20:34;;;;;;;11.02;6.65;;;19.90;76.10;;;;;;5038382;28;20046;-76
2021/07/15 08:23:01;;;;;;;10.88;7.43;;;20.00;76.10;;;;;;5038255;28;20044;-76
2021/07/15 08:25:27;;;;;;;8.68;6.95;;;20.20;77.80;;;;;;5038415;28;20085;-76
2021/07/15 08:27:53;;;;;;;9.68;6.53;;;20.50;78.50;;;;;;5036762;28;20029;-74
2021/07/15 08:30:19;;;;;;;11.18;6.57;;;20.80;76.80;;;;;;5038106;28;20029;-75
2021/07/15 08:32:45;;;;;;;11.60;6.45;;;21.10;78.50;;;;;;5038000;28;20021;-75
2021/07/15 08:35:11;;;;;;;10.68;6.55;;;21.20;76.20;;;;;;5033683;28;20026;-75
2021/07/15 08:37:37;;;;;;;10.07;6.40;;;21.30;76.00;;;;;;5034674;28;20085;-75
2021/07/15 08:40:06;;;;;;;12.07;6.07;;;21.60;74.50;;;;;;5038113;28;20026;-75
2021/07/15 08:42:33;;;;;;;13.88;6.75;;;22.10;74.70;;;;;;5037863;28;20071;-75
2021/07/15 08:45:03;;;;;;;9.18;5.15;;;22.60;77.50;;;;;;5037818;28;20022;-75
2021/07/15 08:47:30;;;;;;;8.48;6.05;;;23.20;77.10;;;;;;5037799;28;20039;-76
2021/07/15 08:49:56;;;;;;;8.35;5.50;;;23.80;79.10;;;;;;5037995;28;20408;-76
2021/07/15 08:52:22;;;;;;;9.40;5.82;;;24.40;78.40;;;;;;5037767;28;20022;-76
2021/07/15 08:54:55;;;;;;;8.77;5.18;;;24.80;73.00;;;;;;5037791;28;20100;-75
2021/07/15 08:57:22;;;;;;;7.63;5.15;;;24.90;70.70;;;;;;5037751;28;20022;-75
2021/07/15 08:59:48;;;;;;;10.27;5.35;;;24.60;66.40;;;;;;5037495;28;20519;-75
2021/07/15 09:02:21;;;;;;;9.20;5.45;;;24.50;65.10;;;;;;5024886;28;20435;-75
2021/07/15 09:04:49;;;;;;;6.80;5.00;;;24.50;65.90;;;;;;5037596;28;20047;-75
2021/07/15 09:07:18;;;;;;;8.48;5.28;;;25.00;72.00;;;;;;5037430;28;20108;-75
2021/07/15 09:09:45;;;;;;;9.43;5.07;;;25.50;68.70;;;;;;5037607;28;20100;-76
2021/07/15 09:12:12;;;;;;;8.32;4.90;;;26.00;70.80;;;;;;5024448;28;20053;-76
2021/07/15 09:14:54;;;;;;;8.30;4.68;;;26.30;70.70;;;;;;5025552;28;20037;-76
2021/07/15 09:17:31;;;;;;;8.18;5.50;;;26.40;66.80;;;;;;5037551;28;20465;-75
2021/07/15 09:19:58;;;;;;;10.15;5.38;;;26.50;65.20;;;;;;5037034;28;20030;-76
2021/07/15 09:22:24;;;;;;;8.82;5.15;;;26.70;69.90;;;;;;5032064;28;20022;-75
2021/07/15 09:24:51;;;;;;;7.47;5.15;;;27.00;71.10;;;;;;5035249;28;20025;-75
2021/07/15 09:27:22;;;;;;;7.22;4.47;;;27.40;73.50;;;;;;5036183;28;20022;-75
2021/07/15 09:30:08;;;;;;;8.38;5.05;;;28.00;73.00;;;;;;5036997;28;20029;-76
2021/07/15 09:32:55;;;;;;;7.45;4.68;;;28.80;73.70;;;;;;5037126;28;20532;-75
2021/07/15 09:35:35;;;;;;;9.00;4.38;;;29.30;66.00;;;;;;5037167;28;20029;-75
2021/07/15 09:38:11;;;;;;;8.50;4.53;;;29.80;67.20;;;;;;5024104;28;20020;-75
2021/07/15 09:40:50;;;;;;;6.68;4.18;;;30.30;72.20;;;;;;5036969;28;20167;-75
2021/07/15 09:43:16;;;;;;;8.05;4.80;;;30.90;72.50;;;;;;5037060;28;20040;-73
2021/07/15 09:45:43;;;;;;;6.22;4.45;;;31.50;72.30;;;;;;5036914;28;20486;-72
2021/07/15 09:48:18;;;;;;;9.48;4.30;;;31.90;66.90;;;;;;5037225;28;20018;-72
2021/07/15 09:50:45;;;;;;;8.50;4.45;;;32.00;68.60;;;;;;5037089;28;20022;-73
2021/07/15 09:53:19;;;;;;;6.95;4.00;;;32.30;68.40;;;;;;5036152;28;20029;-73
2021/07/15 09:55:47;;;;;;;6.07;3.60;;;32.50;65.00;;;;;;5036863;28;20052;-73
2021/07/15 09:58:14;;;;;;;6.65;4.10;;;32.80;64.90;;;;;;5036959;28;20416;-72
2021/07/15 10:00:45;;;;;;;7.60;4.25;;;33.10;66.90;;;;;;5036837;28;20037;-75
2021/07/15 10:03:13;;;;;;;8.20;3.85;;;33.30;66.00;;;;;;5036823;28;20477;-75
2021/07/15 10:05:50;;;;;;;6.07;3.75;;;33.50;65.90;;;;;;5036940;28;20512;-75
2021/07/15 10:08:24;;;;;;;7.43;3.70;;;33.70;60.80;;;;;;5037032;28;20063;-75
2021/07/15 10:10:50;;;;;;;5.30;3.55;;;33.70;59.00;;;;;;5036914;28;20537;-75
2021/07/15 10:13:18;;;;;;;7.25;3.92;;;33.40;61.00;;;;;;5036052;28;20465;-73
2021/07/15 10:15:46;;;;;;;6.22;3.58;;;33.40;59.10;;;;;;5026800;28;20041;-75
2021/07/15 10:18:12;;;;;;;7.22;4.28;;;33.50;60.90;;;;;;5036730;28;20029;-73
2021/07/15 10:20:56;;;;;;;6.47;3.97;;;33.50;61.00;;;;;;5036528;28;20056;-73
2021/07/15 10:23:45;;;;;;;8.30;3.88;;;33.30;56.50;;;;;;5036603;28;20018;-73
2021/07/15 10:26:12;;;;;;;6.43;4.20;;;32.80;54.60;;;;;;5036409;28;20087;-72
2021/07/15 10:28:45;;;;;;;8.73;4.70;;;32.30;56.20;;;;;;5036961;28;20065;-72
2021/07/15 10:31:12;;;;;;;8.13;4.28;;;32.00;59.50;;;;;;5036374;28;20033;-72
2021/07/15 10:33:38;;;;;;;9.82;4.07;;;32.20;59.60;;;;;;5039366;28;20526;-72
2021/07/15 10:36:05;;;;;;;6.45;4.20;;;32.30;58.20;;;;;;5040335;28;20017;-78
2021/07/15 10:38:37;;;;;;;4.97;3.78;;;32.50;55.70;;;;;;5040387;28;20029;-74
2021/07/15 10:41:04;;;;;;;7.18;4.18;;;32.30;52.60;;;;;;5040044;28;20022;-72
2021/07/15 10:43:32;;;;;;;6.97;4.28;;;31.90;55.50;;;;;;5040231;28;20539;-75
2021/07/15 10:46:01;;;;;;;6.85;4.07;;;31.40;57.90;;;;;;5039814;28;20044;-74
2021/07/15 10:48:28;;;;;;;7.05;4.85;;;31.50;61.10;;;;;;5040383;28;20021;-71
2021/07/15 10:50:54;;;;;;;6.93;3.92;;;31.80;60.30;;;;;;5040091;28;20025;-72
2021/07/15 10:53:20;;;;;;;8.15;3.88;;;32.20;60.60;;;;;;5040209;28;20100;-71
2021/07/15 10:55:47;;;;;;;5.93;4.25;;;32.50;59.70;;;;;;5040035;28;20037;-71
2021/07/15 10:58:13;;;;;;;7.80;4.32;;;32.40;58.60;;;;;;5034523;28;20034;-72
2021/07/15 11:00:59;;;;;;;8.45;4.88;;;32.20;58.60;;;;;;5033362;28;20034;-71
2021/07/15 11:03:26;;;;;;;7.05;4.18;;;32.30;61.30;;;;;;5032664;28;20102;-70
2021/07/15 11:05:54;;;;;;;6.30;4.30;;;32.50;57.80;;;;;;5039672;28;20018;-71
2021/07/15 11:08:49;;;;;;;6.80;4.03;;;32.80;60.00;;;;;;5036573;28;20025;-72
2021/07/15 11:11:30;;;;;;;6.97;4.28;;;33.40;60.80;;;;;;5039429;28;20025;-73
2021/07/15 11:13:56;;;;;;;5.20;3.70;;;33.90;62.10;;;;;;5026266;28;20109;-74
2021/07/15 11:16:48;;;;;;;5.57;3.35;;;34.40;57.60;;;;;;5029459;28;20083;-71
2021/07/15 11:19:51;;;;;;;6.80;3.88;;;34.00;50.90;;;;;;5039542;28;20101;-73
2021/07/15 11:22:44;;;;;;;5.88;3.42;;;33.40;51.90;;;;;;5032711;28;20045;-73
2021/07/15 11:25:33;;;;;;;5.55;3.88;;;33.40;54.70;;;;;;5029648;28;20037;-73
2021/07/15 11:28:12;;;;;;;8.07;3.90;;;33.70;57.60;;;;;;5038866;28;20030;-73
2021/07/15 11:30:38;;;;;;;7.22;3.88;;;34.00;54.40;;;;;;5038928;28;20033;-74
2021/07/15 11:33:19;;;;;;;6.72;3.63;;;34.40;54.00;;;;;;5036244;28;20022;-74
2021/07/15 11:35:54;;;;;;;6.22;3.58;;;34.50;56.00;;;;;;5038967;28;20495;-73
2021/07/15 11:38:24;;;;;;;6.10;4.00;;;34.50;55.70;;;;;;5039344;28;20022;-74
2021/07/15 11:40:51;;;;;;;5.47;3.83;;;34.50;56.20;;;;;;5038769;28;20022;-73
2021/07/15 11:43:34;;;;;;;6.57;4.15;;;34.70;56.50;;;;;;5038684;28;20025;-73
2021/07/15 11:46:15;;;;;;;6.68;3.88;;;35.00;57.20;;;;;;5038643;28;20104;-73
2021/07/15 11:48:51;;;;;;;7.18;3.80;;;35.20;57.20;;;;;;5038517;28;20032;-73
2021/07/15 11:51:28;;;;;;;6.22;3.88;;;35.30;57.20;;;;;;5039041;28;20018;-73
2021/07/15 11:54:14;;;;;;;6.35;3.80;;;35.30;55.90;;;;;;5037429;28;20025;-73
2021/07/15 11:56:42;;;;;;;6.88;4.22;;;35.10;53.80;;;;;;5038476;28;20496;-73
2021/07/15 11:59:08;;;;;;;8.98;4.35;;;35.10;56.20;;;;;;5038724;28;20116;-73
2021/07/15 12:01:35;;;;;;;7.70;4.00;;;35.00;56.00;;;;;;5038260;28;20033;-74
2021/07/15 12:04:04;;;;;;;6.78;3.72;;;34.70;54.40;;;;;;5038693;28;20029;-73
2021/07/15 12:06:32;;;;;;;7.47;3.95;;;34.30;52.00;;;;;;5033065;28;20034;-74
2021/07/15 12:09:07;;;;;;;8.32;4.15;;;34.10;54.80;;;;;;5038587;28;20075;-73
2021/07/15 12:11:34;;;;;;;6.72;3.72;;;33.90;54.00;;;;;;5038517;28;20059;-73
2021/07/15 12:14:02;;;;;;;5.75;3.75;;;33.50;51.80;;;;;;5032471;28;20041;-73
2021/07/15 12:16:29;;;;;;;5.55;3.60;;;33.20;52.10;;;;;;5038397;28;20026;-73
2021/07/15 12:19:08;;;;;;;6.10;3.70;;;32.80;52.10;;;;;;5038220;28;20029;-73
2021/07/15 12:21:36;;;;;;;7.63;4.03;;;32.60;52.70;;;;;;5038059;28;20467;-73
2021/07/15 12:24:22;;;;;;;7.20;3.60;;;32.40;54.60;;;;;;5038068;28;20384;-73
2021/07/15 12:26:53;;;;;;;5.15;3.03;;;32.20;54.60;;;;;;5031863;28;20021;-72
2021/07/15 12:29:18;;;;;;;5.67;3.57;;;31.90;50.50;;;;;;5038058;28;20021;-72
2021/07/15 12:31:44;;;;;;;8.43;3.92;;;31.60;52.00;;;;;;5037910;28;20021;-73
2021/07/15 12:34:11;;;;;;;5.18;3.67;;;31.30;50.50;;;;;;5038023;28;20033;-73
2021/07/15 12:36:39;;;;;;;6.53;4.10;;;31.10;52.40;;;;;;5038087;28;20026;-73
2021/07/15 12:39:10;;;;;;;6.13;3.80;;;31.00;54.40;;;;;;5037821;28;20025;-73
2021/07/15 12:41:38;;;;;;;7.03;3.85;;;30.70;52.70;;;;;;5037823;28;20037;-72
2021/07/15 12:44:09;;;;;;;8.00;3.90;;;30.60;53.10;;;;;;5037496;28;20033;-73
2021/07/15 12:46:40;;;;;;;6.65;4.18;;;30.50;54.10;;;;;;5037584;28;20025;-73